Terminal Aerodrome Forecast
Issued by NWS Upton, NY

Home | Current Version | Previous Version | Text Only | Print | Product List | Glossary On
Versions: 1 2 3 4 5 6 7 8 9 10 11 12 13 14 15 16 17 18 19 20 21 22 23 24 25 26 27 28 29
618
FTUS41 KOKX 222322
TAFJFK
TAF
KJFK 222322Z 2300/2406 14005KT P6SM BKN250
     FM230400 14005KT P6SM FEW008 FEW040 BKN250
     FM230900 12004KT P6SM SCT008 SCT040 BKN250
     FM231300 14008KT P6SM SCT008 BKN040
     FM231900 15013KT P6SM SCT008 BKN035
     FM240000 16014KT 6SM BR VCSH SCT008 BKN025=

USA.gov is the U.S. government's official web portal to all federal, state and local government web resources and services.